sensor_id;sensor_type;location;lat;lon;timestamp;temperature;humidity
14908;DHT22;7545;52.092;7.006;2024-02-14T00:01:05;8.50;99.90
14908;DHT22;7545;52.092;7.006;2024-02-14T00:03:34;8.60;99.90
14908;DHT22;7545;52.092;7.006;2024-02-14T00:06:00;8.50;99.90
14908;DHT22;7545;52.092;7.006;2024-02-14T00:08:25;8.50;99.90
14908;DHT22;7545;52.092;7.006;2024-02-14T00:10:51;8.50;99.90
14908;DHT22;7545;52.092;7.006;2024-02-14T00:13:16;8.50;99.90
14908;DHT22;7545;52.092;7.006;2024-02-14T00:15:43;8.50;99.90
14908;DHT22;7545;52.092;7.006;2024-02-14T00:18:09;8.40;99.90
14908;DHT22;7545;52.092;7.006;2024-02-14T00:20:35;8.40;99.90
14908;DHT22;7545;52.092;7.006;2024-02-14T00:23:01;8.40;99.90
14908;DHT22;7545;52.092;7.006;2024-02-14T00:25:27;8.40;99.90
14908;DHT22;7545;52.092;7.006;2024-02-14T00:27:52;8.50;99.90
14908;DHT22;7545;52.092;7.006;2024-02-14T00:30:19;8.40;99.90
14908;DHT22;7545;52.092;7.006;2024-02-14T00:32:46;8.40;99.90
14908;DHT22;7545;52.092;7.006;2024-02-14T00:35:11;8.40;99.90
14908;DHT22;7545;52.092;7.006;2024-02-14T00:37:37;8.40;99.90
14908;DHT22;7545;52.092;7.006;2024-02-14T00:40:03;8.40;99.90
14908;DHT22;7545;52.092;7.006;2024-02-14T00:42:29;8.40;99.90
14908;DHT22;7545;52.092;7.006;2024-02-14T00:44:54;8.40;99.90
14908;DHT22;7545;52.092;7.006;2024-02-14T00:47:20;8.40;99.90
14908;DHT22;7545;52.092;7.006;2024-02-14T00:49:45;8.40;99.90
14908;DHT22;7545;52.092;7.006;2024-02-14T00:52:11;8.40;99.90
14908;DHT22;7545;52.092;7.006;2024-02-14T00:54:37;8.40;99.90
14908;DHT22;7545;52.092;7.006;2024-02-14T00:57:03;8.40;99.90
14908;DHT22;7545;52.092;7.006;2024-02-14T00:59:29;8.40;99.90
14908;DHT22;7545;52.092;7.006;2024-02-14T01:01:54;8.40;99.90
14908;DHT22;7545;52.092;7.006;2024-02-14T01:04:20;8.40;99.90
14908;DHT22;7545;52.092;7.006;2024-02-14T01:06:45;8.30;99.90
14908;DHT22;7545;52.092;7.006;2024-02-14T01:09:11;8.40;99.90
14908;DHT22;7545;52.092;7.006;2024-02-14T01:11:36;8.40;99.90
14908;DHT22;7545;52.092;7.006;2024-02-14T01:14:04;8.40;99.90
14908;DHT22;7545;52.092;7.006;2024-02-14T01:16:29;8.40;99.90
14908;DHT22;7545;52.092;7.006;2024-02-14T01:18:55;8.40;99.90
14908;DHT22;7545;52.092;7.006;2024-02-14T01:21:20;8.40;99.90
14908;DHT22;7545;52.092;7.006;2024-02-14T01:23:46;8.40;99.90
14908;DHT22;7545;52.092;7.006;2024-02-14T01:26:11;8.40;99.90
14908;DHT22;7545;52.092;7.006;2024-02-14T01:28:37;8.40;99.90
14908;DHT22;7545;52.092;7.006;2024-02-14T01:31:03;8.50;99.90
14908;DHT22;7545;52.092;7.006;2024-02-14T01:33:29;8.40;99.90
14908;DHT22;7545;52.092;7.006;2024-02-14T01:35:56;8.50;99.90
14908;DHT22;7545;52.092;7.006;2024-02-14T01:38:23;8.50;99.90
14908;DHT22;7545;52.092;7.006;2024-02-14T01:40:48;8.50;99.90
14908;DHT22;7545;52.092;7.006;2024-02-14T01:43:14;8.40;99.90
14908;DHT22;7545;52.092;7.006;2024-02-14T01:45:40;8.50;99.90
14908;DHT22;7545;52.092;7.006;2024-02-14T01:48:06;8.50;99.90
14908;DHT22;7545;52.092;7.006;2024-02-14T01:50:33;8.50;99.90
14908;DHT22;7545;52.092;7.006;2024-02-14T01:53:00;8.50;99.90
14908;DHT22;7545;52.092;7.006;2024-02-14T01:55:29;8.50;99.90
14908;DHT22;7545;52.092;7.006;2024-02-14T01:57:55;8.50;99.90
14908;DHT22;7545;52.092;7.006;2024-02-14T02:00:21;8.50;99.90
14908;DHT22;7545;52.092;7.006;2024-02-14T02:02:47;8.50;99.90
14908;DHT22;7545;52.092;7.006;2024-02-14T02:05:13;8.50;99.90
14908;DHT22;7545;52.092;7.006;2024-02-14T02:07:39;8.50;99.90
14908;DHT22;7545;52.092;7.006;2024-02-14T02:10:09;8.50;99.90
14908;DHT22;7545;52.092;7.006;2024-02-14T02:12:36;8.50;99.90
14908;DHT22;7545;52.092;7.006;2024-02-14T02:15:07;8.50;99.90
14908;DHT22;7545;52.092;7.006;2024-02-14T02:17:36;8.50;99.90
14908;DHT22;7545;52.092;7.006;2024-02-14T02:20:02;8.50;99.90
14908;DHT22;7545;52.092;7.006;2024-02-14T02:22:27;8.50;99.90
14908;DHT22;7545;52.092;7.006;2024-02-14T02:24:57;8.50;99.90
14908;DHT22;7545;52.092;7.006;2024-02-14T02:27:23;8.50;99.90
14908;DHT22;7545;52.092;7.006;2024-02-14T02:29:48;8.50;99.90
14908;DHT22;7545;52.092;7.006;2024-02-14T02:32:14;8.60;99.90
14908;DHT22;7545;52.092;7.006;2024-02-14T02:34:41;8.50;99.90
14908;DHT22;7545;52.092;7.006;2024-02-14T02:37:07;8.50;99.90
14908;DHT22;7545;52.092;7.006;2024-02-14T02:39:34;8.50;99.90
14908;DHT22;7545;52.092;7.006;2024-02-14T02:42:04;8.50;99.90
14908;DHT22;7545;52.092;7.006;2024-02-14T02:44:30;8.50;99.90
14908;DHT22;7545;52.092;7.006;2024-02-14T02:46:56;8.60;99.90
14908;DHT22;7545;52.092;7.006;2024-02-14T02:49:22;8.60;99.90
14908;DHT22;7545;52.092;7.006;2024-02-14T02:51:47;8.60;99.90
14908;DHT22;7545;52.092;7.006;2024-02-14T02:54:13;8.60;99.90
14908;DHT22;7545;52.092;7.006;2024-02-14T02:56:39;8.60;99.90
14908;DHT22;7545;52.092;7.006;2024-02-14T02:59:06;8.60;99.90
14908;DHT22;7545;52.092;7.006;2024-02-14T03:01:35;8.60;99.90
14908;DHT22;7545;52.092;7.006;2024-02-14T03:04:01;8.60;99.90
14908;DHT22;7545;52.092;7.006;2024-02-14T03:06:27;8.70;99.90
14908;DHT22;7545;52.092;7.006;2024-02-14T03:08:53;8.60;99.90
14908;DHT22;7545;52.092;7.006;2024-02-14T03:11:20;8.70;99.90
14908;DHT22;7545;52.092;7.006;2024-02-14T03:13:46;8.70;99.90
14908;DHT22;7545;52.092;7.006;2024-02-14T03:16:14;8.70;99.90
14908;DHT22;7545;52.092;7.006;2024-02-14T03:18:40;8.70;99.90
14908;DHT22;7545;52.092;7.006;2024-02-14T03:21:06;8.70;99.90
14908;DHT22;7545;52.092;7.006;2024-02-14T03:23:32;8.70;99.90
14908;DHT22;7545;52.092;7.006;2024-02-14T03:25:57;8.70;99.90
14908;DHT22;7545;52.092;7.006;2024-02-14T03:28:23;8.70;99.90
14908;DHT22;7545;52.092;7.006;2024-02-14T03:30:49;8.70;99.90
14908;DHT22;7545;52.092;7.006;2024-02-14T03:33:14;8.70;99.90
14908;DHT22;7545;52.092;7.006;2024-02-14T03:35:40;8.70;99.90
14908;DHT22;7545;52.092;7.006;2024-02-14T03:38:06;8.80;99.90
14908;DHT22;7545;52.092;7.006;2024-02-14T03:40:34;8.70;99.90
14908;DHT22;7545;52.092;7.006;2024-02-14T03:43:01;8.80;99.90
14908;DHT22;7545;52.092;7.006;2024-02-14T03:45:27;8.80;99.90
14908;DHT22;7545;52.092;7.006;2024-02-14T03:47:55;8.80;99.90
14908;DHT22;7545;52.092;7.006;2024-02-14T03:50:22;8.80;99.90
14908;DHT22;7545;52.092;7.006;2024-02-14T03:52:47;8.80;99.90
14908;DHT22;7545;52.092;7.006;2024-02-14T03:55:14;8.80;99.90
14908;DHT22;7545;52.092;7.006;2024-02-14T03:57:41;8.90;99.90
14908;DHT22;7545;52.092;7.006;2024-02-14T04:00:11;8.90;99.90
14908;DHT22;7545;52.092;7.006;2024-02-14T04:02:36;8.90;99.90
14908;DHT22;7545;52.092;7.006;2024-02-14T04:05:02;8.90;99.90
14908;DHT22;7545;52.092;7.006;2024-02-14T04:07:28;8.90;99.90
14908;DHT22;7545;52.092;7.006;2024-02-14T04:09:55;8.90;99.90
14908;DHT22;7545;52.092;7.006;2024-02-14T04:12:21;8.90;99.90
14908;DHT22;7545;52.092;7.006;2024-02-14T04:14:46;8.90;99.90
14908;DHT22;7545;52.092;7.006;2024-02-14T04:17:12;8.90;99.90
14908;DHT22;7545;52.092;7.006;2024-02-14T04:19:38;8.90;99.90
14908;DHT22;7545;52.092;7.006;2024-02-14T04:22:03;8.90;99.90
14908;DHT22;7545;52.092;7.006;2024-02-14T04:24:29;9.00;99.90
14908;DHT22;7545;52.092;7.006;2024-02-14T04:26:55;9.00;99.90
14908;DHT22;7545;52.092;7.006;2024-02-14T04:29:22;9.00;99.90
14908;DHT22;7545;52.092;7.006;2024-02-14T04:31:48;9.00;99.90
14908;DHT22;7545;52.092;7.006;2024-02-14T04:34:14;9.00;99.90
14908;DHT22;7545;52.092;7.006;2024-02-14T04:36:40;9.00;99.90
14908;DHT22;7545;52.092;7.006;2024-02-14T04:39:06;9.10;99.90
14908;DHT22;7545;52.092;7.006;2024-02-14T04:41:32;9.10;99.90
14908;DHT22;7545;52.092;7.006;2024-02-14T04:44:05;9.10;99.90
14908;DHT22;7545;52.092;7.006;2024-02-14T04:46:34;9.10;99.90
14908;DHT22;7545;52.092;7.006;2024-02-14T04:49:01;9.10;99.90
14908;DHT22;7545;52.092;7.006;2024-02-14T04:51:30;9.10;99.90
14908;DHT22;7545;52.092;7.006;2024-02-14T04:53:59;9.10;99.90
14908;DHT22;7545;52.092;7.006;2024-02-14T04:56:28;9.10;99.90
14908;DHT22;7545;52.092;7.006;2024-02-14T04:58:54;9.10;99.90
14908;DHT22;7545;52.092;7.006;2024-02-14T05:01:20;9.10;99.90
14908;DHT22;7545;52.092;7.006;2024-02-14T05:03:46;9.10;99.90
14908;DHT22;7545;52.092;7.006;2024-02-14T05:06:11;9.20;99.90
14908;DHT22;7545;52.092;7.006;2024-02-14T05:08:37;9.20;99.90
14908;DHT22;7545;52.092;7.006;2024-02-14T05:11:03;9.20;99.90
14908;DHT22;7545;52.092;7.006;2024-02-14T05:13:30;9.20;99.90
14908;DHT22;7545;52.092;7.006;2024-02-14T05:15:55;9.20;99.90
14908;DHT22;7545;52.092;7.006;2024-02-14T05:18:21;9.20;99.90
14908;DHT22;7545;52.092;7.006;2024-02-14T05:20:47;9.20;99.90
14908;DHT22;7545;52.092;7.006;2024-02-14T05:23:13;9.20;99.90
14908;DHT22;7545;52.092;7.006;2024-02-14T05:25:38;9.20;99.90
14908;DHT22;7545;52.092;7.006;2024-02-14T05:28:05;9.30;99.90
14908;DHT22;7545;52.092;7.006;2024-02-14T05:30:30;9.30;99.90
14908;DHT22;7545;52.092;7.006;2024-02-14T05:32:57;9.20;99.90
14908;DHT22;7545;52.092;7.006;2024-02-14T05:35:23;9.30;99.90
14908;DHT22;7545;52.092;7.006;2024-02-14T05:37:49;9.30;99.90
14908;DHT22;7545;52.092;7.006;2024-02-14T05:40:16;9.30;99.90
14908;DHT22;7545;52.092;7.006;2024-02-14T05:42:42;9.30;99.90
14908;DHT22;7545;52.092;7.006;2024-02-14T05:45:09;9.30;99.90
14908;DHT22;7545;52.092;7.006;2024-02-14T05:47:35;9.30;99.90
14908;DHT22;7545;52.092;7.006;2024-02-14T05:50:01;9.30;99.90
14908;DHT22;7545;52.092;7.006;2024-02-14T05:52:27;9.30;99.90
14908;DHT22;7545;52.092;7.006;2024-02-14T05:54:52;9.40;99.90
14908;DHT22;7545;52.092;7.006;2024-02-14T05:57:19;9.30;99.90
14908;DHT22;7545;52.092;7.006;2024-02-14T05:59:45;9.30;99.90
14908;DHT22;7545;52.092;7.006;2024-02-14T06:02:10;9.40;99.90
14908;DHT22;7545;52.092;7.006;2024-02-14T06:04:36;9.40;99.90
14908;DHT22;7545;52.092;7.006;2024-02-14T06:07:01;9.30;99.90
14908;DHT22;7545;52.092;7.006;2024-02-14T06:09:28;9.40;99.90
14908;DHT22;7545;52.092;7.006;2024-02-14T06:11:53;9.40;99.90
14908;DHT22;7545;52.092;7.006;2024-02-14T06:14:19;9.40;99.90
14908;DHT22;7545;52.092;7.006;2024-02-14T06:16:44;9.40;99.90
14908;DHT22;7545;52.092;7.006;2024-02-14T06:19:10;9.40;99.90
14908;DHT22;7545;52.092;7.006;2024-02-14T06:21:37;9.40;99.90
14908;DHT22;7545;52.092;7.006;2024-02-14T06:24:02;9.40;99.90
14908;DHT22;7545;52.092;7.006;2024-02-14T06:26:31;9.40;99.90
14908;DHT22;7545;52.092;7.006;2024-02-14T06:28:58;9.40;99.90
14908;DHT22;7545;52.092;7.006;2024-02-14T06:31:24;9.50;99.90
14908;DHT22;7545;52.092;7.006;2024-02-14T06:33:49;9.40;99.90
14908;DHT22;7545;52.092;7.006;2024-02-14T06:36:15;9.40;99.90
14908;DHT22;7545;52.092;7.006;2024-02-14T06:38:40;9.50;99.90
14908;DHT22;7545;52.092;7.006;2024-02-14T06:41:06;9.40;99.90
14908;DHT22;7545;52.092;7.006;2024-02-14T06:43:32;9.50;99.90
14908;DHT22;7545;52.092;7.006;2024-02-14T06:45:58;9.50;99.90
14908;DHT22;7545;52.092;7.006;2024-02-14T06:48:23;9.50;99.90
14908;DHT22;7545;52.092;7.006;2024-02-14T06:50:53;9.50;99.90
14908;DHT22;7545;52.092;7.006;2024-02-14T06:53:18;9.50;99.90
14908;DHT22;7545;52.092;7.006;2024-02-14T06:55:44;9.50;99.90
14908;DHT22;7545;52.092;7.006;2024-02-14T06:58:09;9.50;99.90
14908;DHT22;7545;52.092;7.006;2024-02-14T07:00:35;9.50;99.90
14908;DHT22;7545;52.092;7.006;2024-02-14T07:03:01;9.50;99.90
14908;DHT22;7545;52.092;7.006;2024-02-14T07:05:27;9.50;99.90
14908;DHT22;7545;52.092;7.006;2024-02-14T07:07:56;9.50;99.90
14908;DHT22;7545;52.092;7.006;2024-02-14T07:10:22;9.50;99.90
14908;DHT22;7545;52.092;7.006;2024-02-14T07:12:48;9.60;99.90
14908;DHT22;7545;52.092;7.006;2024-02-14T07:15:13;9.60;99.90
14908;DHT22;7545;52.092;7.006;2024-02-14T07:17:39;9.60;99.90
14908;DHT22;7545;52.092;7.006;2024-02-14T07:20:06;9.60;99.90
14908;DHT22;7545;52.092;7.006;2024-02-14T07:22:34;9.60;99.90
14908;DHT22;7545;52.092;7.006;2024-02-14T07:25:00;9.60;99.90
14908;DHT22;7545;52.092;7.006;2024-02-14T07:27:26;9.60;99.90
14908;DHT22;7545;52.092;7.006;2024-02-14T07:29:52;9.60;99.90
14908;DHT22;7545;52.092;7.006;2024-02-14T07:32:18;9.60;99.90
14908;DHT22;7545;52.092;7.006;2024-02-14T07:34:43;9.60;99.90
14908;DHT22;7545;52.092;7.006;2024-02-14T07:37:09;9.70;99.90
14908;DHT22;7545;52.092;7.006;2024-02-14T07:39:34;9.70;99.90
14908;DHT22;7545;52.092;7.006;2024-02-14T07:42:01;9.70;99.90
14908;DHT22;7545;52.092;7.006;2024-02-14T07:44:27;9.70;99.90
14908;DHT22;7545;52.092;7.006;2024-02-14T07:46:52;9.70;99.90
14908;DHT22;7545;52.092;7.006;2024-02-14T07:49:18;9.70;99.90
14908;DHT22;7545;52.092;7.006;2024-02-14T07:51:45;9.70;99.90
14908;DHT22;7545;52.092;7.006;2024-02-14T07:54:10;9.70;99.90
14908;DHT22;7545;52.092;7.006;2024-02-14T07:56:36;9.70;99.90
14908;DHT22;7545;52.092;7.006;2024-02-14T07:59:02;9.70;99.90
14908;DHT22;7545;52.092;7.006;2024-02-14T08:01:29;9.70;99.90
14908;DHT22;7545;52.092;7.006;2024-02-14T08:03:55;9.70;99.90
14908;DHT22;7545;52.092;7.006;2024-02-14T08:06:21;9.70;99.90
14908;DHT22;7545;52.092;7.006;2024-02-14T08:08:46;9.70;99.90
14908;DHT22;7545;52.092;7.006;2024-02-14T08:11:14;9.70;99.90
14908;DHT22;7545;52.092;7.006;2024-02-14T08:13:39;9.80;99.90
14908;DHT22;7545;52.092;7.006;2024-02-14T08:16:06;9.80;99.90
14908;DHT22;7545;52.092;7.006;2024-02-14T08:18:32;9.80;99.90
14908;DHT22;7545;52.092;7.006;2024-02-14T08:20:58;9.70;99.90
14908;DHT22;7545;52.092;7.006;2024-02-14T08:23:23;9.80;99.90
14908;DHT22;7545;52.092;7.006;2024-02-14T08:25:49;9.80;99.90
14908;DHT22;7545;52.092;7.006;2024-02-14T08:28:15;9.80;99.90
14908;DHT22;7545;52.092;7.006;2024-02-14T08:30:42;9.80;99.90
14908;DHT22;7545;52.092;7.006;2024-02-14T08:33:08;9.80;99.90
14908;DHT22;7545;52.092;7.006;2024-02-14T08:35:36;9.80;99.90
14908;DHT22;7545;52.092;7.006;2024-02-14T08:38:01;9.80;99.90
14908;DHT22;7545;52.092;7.006;2024-02-14T08:40:27;9.90;99.90
14908;DHT22;7545;52.092;7.006;2024-02-14T08:42:53;9.90;99.90
14908;DHT22;7545;52.092;7.006;2024-02-14T08:45:18;9.90;99.90
14908;DHT22;7545;52.092;7.006;2024-02-14T08:47:44;9.90;99.90
14908;DHT22;7545;52.092;7.006;2024-02-14T08:50:10;9.90;99.90
14908;DHT22;7545;52.092;7.006;2024-02-14T08:52:35;9.90;99.90
14908;DHT22;7545;52.092;7.006;2024-02-14T08:55:03;9.90;99.90
14908;DHT22;7545;52.092;7.006;2024-02-14T08:57:29;9.90;99.90
14908;DHT22;7545;52.092;7.006;2024-02-14T08:59:56;9.90;99.90
14908;DHT22;7545;52.092;7.006;2024-02-14T09:02:22;9.90;99.90
14908;DHT22;7545;52.092;7.006;2024-02-14T09:04:48;9.90;99.90
14908;DHT22;7545;52.092;7.006;2024-02-14T09:07:13;10.00;99.90
14908;DHT22;7545;52.092;7.006;2024-02-14T09:09:39;10.00;99.90
14908;DHT22;7545;52.092;7.006;2024-02-14T09:12:05;10.00;99.90
14908;DHT22;7545;52.092;7.006;2024-02-14T09:14:31;10.00;99.90
14908;DHT22;7545;52.092;7.006;2024-02-14T09:16:57;10.00;99.90
14908;DHT22;7545;52.092;7.006;2024-02-14T09:19:23;10.00;99.90
14908;DHT22;7545;52.092;7.006;2024-02-14T09:21:50;10.00;99.90
14908;DHT22;7545;52.092;7.006;2024-02-14T09:24:16;10.00;99.90
14908;DHT22;7545;52.092;7.006;2024-02-14T09:26:41;10.00;99.90
14908;DHT22;7545;52.092;7.006;2024-02-14T09:29:08;10.10;99.90
14908;DHT22;7545;52.092;7.006;2024-02-14T09:31:36;10.10;99.90
14908;DHT22;7545;52.092;7.006;2024-02-14T09:34:02;10.10;99.90
14908;DHT22;7545;52.092;7.006;2024-02-14T09:36:27;10.10;99.90
14908;DHT22;7545;52.092;7.006;2024-02-14T09:38:54;10.10;99.90
14908;DHT22;7545;52.092;7.006;2024-02-14T09:41:33;10.10;99.90
14908;DHT22;7545;52.092;7.006;2024-02-14T09:44:00;10.20;99.90
14908;DHT22;7545;52.092;7.006;2024-02-14T09:46:26;10.10;99.90
14908;DHT22;7545;52.092;7.006;2024-02-14T09:48:52;10.10;99.90
14908;DHT22;7545;52.092;7.006;2024-02-14T09:51:19;10.20;99.90
14908;DHT22;7545;52.092;7.006;2024-02-14T09:53:45;10.20;99.90
14908;DHT22;7545;52.092;7.006;2024-02-14T09:56:11;10.20;99.90
14908;DHT22;7545;52.092;7.006;2024-02-14T09:58:40;10.20;99.90
14908;DHT22;7545;52.092;7.006;2024-02-14T10:01:07;10.20;99.90
14908;DHT22;7545;52.092;7.006;2024-02-14T10:10:17;10.30;99.90
14908;DHT22;7545;52.092;7.006;2024-02-14T10:12:43;10.30;99.90
14908;DHT22;7545;52.092;7.006;2024-02-14T10:15:09;10.30;99.90
14908;DHT22;7545;52.092;7.006;2024-02-14T10:17:34;10.30;99.90
14908;DHT22;7545;52.092;7.006;2024-02-14T10:20:03;10.30;99.90
14908;DHT22;7545;52.092;7.006;2024-02-14T10:22:38;10.30;99.90
14908;DHT22;7545;52.092;7.006;2024-02-14T10:25:05;10.40;99.90
14908;DHT22;7545;52.092;7.006;2024-02-14T10:27:40;10.30;99.90
14908;DHT22;7545;52.092;7.006;2024-02-14T10:30:07;10.40;99.90
14908;DHT22;7545;52.092;7.006;2024-02-14T10:32:37;10.70;99.90
14908;DHT22;7545;52.092;7.006;2024-02-14T10:35:06;10.80;99.90
14908;DHT22;7545;52.092;7.006;2024-02-14T10:37:38;10.80;99.90
14908;DHT22;7545;52.092;7.006;2024-02-14T10:40:04;10.70;99.90
14908;DHT22;7545;52.092;7.006;2024-02-14T10:42:33;10.70;99.90
14908;DHT22;7545;52.092;7.006;2024-02-14T10:45:00;10.70;99.90
14908;DHT22;7545;52.092;7.006;2024-02-14T10:47:30;10.70;99.90
14908;DHT22;7545;52.092;7.006;2024-02-14T10:50:05;10.60;99.90
14908;DHT22;7545;52.092;7.006;2024-02-14T10:52:34;10.60;99.90
14908;DHT22;7545;52.092;7.006;2024-02-14T10:55:02;10.60;99.90
14908;DHT22;7545;52.092;7.006;2024-02-14T10:57:29;10.60;99.90
14908;DHT22;7545;52.092;7.006;2024-02-14T10:59:55;10.60;99.90
14908;DHT22;7545;52.092;7.006;2024-02-14T11:02:22;10.60;99.90
14908;DHT22;7545;52.092;7.006;2024-02-14T11:04:49;10.60;99.90
14908;DHT22;7545;52.092;7.006;2024-02-14T11:07:19;10.60;99.90
14908;DHT22;7545;52.092;7.006;2024-02-14T11:09:45;10.60;99.90
14908;DHT22;7545;52.092;7.006;2024-02-14T11:12:11;10.60;99.90
14908;DHT22;7545;52.092;7.006;2024-02-14T11:14:37;10.60;99.90
14908;DHT22;7545;52.092;7.006;2024-02-14T11:17:09;10.60;99.90
14908;DHT22;7545;52.092;7.006;2024-02-14T11:19:35;10.60;99.90
14908;DHT22;7545;52.092;7.006;2024-02-14T11:22:18;10.60;99.90
14908;DHT22;7545;52.092;7.006;2024-02-14T11:24:47;10.60;99.90
14908;DHT22;7545;52.092;7.006;2024-02-14T11:27:13;10.60;99.90
14908;DHT22;7545;52.092;7.006;2024-02-14T11:29:40;10.60;99.90
14908;DHT22;7545;52.092;7.006;2024-02-14T11:32:07;10.60;99.90
14908;DHT22;7545;52.092;7.006;2024-02-14T11:34:35;10.60;99.90
14908;DHT22;7545;52.092;7.006;2024-02-14T11:37:01;10.60;99.90
14908;DHT22;7545;52.092;7.006;2024-02-14T11:39:27;10.70;99.90
14908;DHT22;7545;52.092;7.006;2024-02-14T11:41:52;10.70;99.90
14908;DHT22;7545;52.092;7.006;2024-02-14T11:44:21;10.70;99.90
14908;DHT22;7545;52.092;7.006;2024-02-14T11:46:51;10.70;99.90
14908;DHT22;7545;52.092;7.006;2024-02-14T11:49:17;10.70;99.90
14908;DHT22;7545;52.092;7.006;2024-02-14T11:51:42;10.70;99.90
14908;DHT22;7545;52.092;7.006;2024-02-14T11:54:09;10.70;99.90
14908;DHT22;7545;52.092;7.006;2024-02-14T11:56:38;10.70;99.90
14908;DHT22;7545;52.092;7.006;2024-02-14T11:59:07;10.70;99.90
14908;DHT22;7545;52.092;7.006;2024-02-14T12:01:35;10.70;99.90
14908;DHT22;7545;52.092;7.006;2024-02-14T12:04:05;10.80;99.90
14908;DHT22;7545;52.092;7.006;2024-02-14T12:06:33;10.80;99.90
14908;DHT22;7545;52.092;7.006;2024-02-14T12:09:02;10.80;99.90
14908;DHT22;7545;52.092;7.006;2024-02-14T12:11:33;10.80;99.90
14908;DHT22;7545;52.092;7.006;2024-02-14T12:14:02;10.90;99.90
14908;DHT22;7545;52.092;7.006;2024-02-14T12:16:28;10.90;99.90
14908;DHT22;7545;52.092;7.006;2024-02-14T12:19:14;10.90;99.90
14908;DHT22;7545;52.092;7.006;2024-02-14T12:21:41;10.90;99.90
14908;DHT22;7545;52.092;7.006;2024-02-14T12:24:09;10.90;99.90
14908;DHT22;7545;52.092;7.006;2024-02-14T12:26:36;10.90;99.90
14908;DHT22;7545;52.092;7.006;2024-02-14T12:29:03;10.90;99.90
14908;DHT22;7545;52.092;7.006;2024-02-14T12:31:30;11.00;99.90
14908;DHT22;7545;52.092;7.006;2024-02-14T12:33:58;11.00;99.90
14908;DHT22;7545;52.092;7.006;2024-02-14T12:36:26;11.00;99.90
14908;DHT22;7545;52.092;7.006;2024-02-14T12:38:54;11.00;99.90
14908;DHT22;7545;52.092;7.006;2024-02-14T12:41:19;11.00;99.90
14908;DHT22;7545;52.092;7.006;2024-02-14T12:43:45;11.00;99.90
14908;DHT22;7545;52.092;7.006;2024-02-14T12:46:10;11.10;99.90
14908;DHT22;7545;52.092;7.006;2024-02-14T12:48:36;11.10;99.90
14908;DHT22;7545;52.092;7.006;2024-02-14T12:51:02;11.10;99.90
14908;DHT22;7545;52.092;7.006;2024-02-14T12:53:27;11.10;99.90
14908;DHT22;7545;52.092;7.006;2024-02-14T12:55:53;11.10;99.90
14908;DHT22;7545;52.092;7.006;2024-02-14T12:58:18;11.10;99.90
14908;DHT22;7545;52.092;7.006;2024-02-14T13:00:44;11.10;99.90
14908;DHT22;7545;52.092;7.006;2024-02-14T13:03:11;11.10;99.90
14908;DHT22;7545;52.092;7.006;2024-02-14T13:05:36;11.10;99.90
14908;DHT22;7545;52.092;7.006;2024-02-14T13:08:02;11.20;99.90
14908;DHT22;7545;52.092;7.006;2024-02-14T13:10:28;11.20;99.90
14908;DHT22;7545;52.092;7.006;2024-02-14T13:12:54;11.20;99.90
14908;DHT22;7545;52.092;7.006;2024-02-14T13:15:20;11.20;99.90
14908;DHT22;7545;52.092;7.006;2024-02-14T13:17:46;11.20;99.90
14908;DHT22;7545;52.092;7.006;2024-02-14T13:20:11;11.20;99.90
14908;DHT22;7545;52.092;7.006;2024-02-14T13:22:37;11.20;99.90
14908;DHT22;7545;52.092;7.006;2024-02-14T13:25:03;11.20;99.90
14908;DHT22;7545;52.092;7.006;2024-02-14T13:27:30;11.20;99.90
14908;DHT22;7545;52.092;7.006;2024-02-14T13:29:56;11.20;99.90
14908;DHT22;7545;52.092;7.006;2024-02-14T13:32:21;11.30;99.90
14908;DHT22;7545;52.092;7.006;2024-02-14T13:34:50;11.30;99.90
14908;DHT22;7545;52.092;7.006;2024-02-14T13:37:15;11.30;99.90
14908;DHT22;7545;52.092;7.006;2024-02-14T13:39:41;11.30;99.90
14908;DHT22;7545;52.092;7.006;2024-02-14T13:42:07;11.30;99.90
14908;DHT22;7545;52.092;7.006;2024-02-14T13:44:33;11.30;99.90
14908;DHT22;7545;52.092;7.006;2024-02-14T13:46:59;11.30;99.90
14908;DHT22;7545;52.092;7.006;2024-02-14T13:49:25;11.30;99.90
14908;DHT22;7545;52.092;7.006;2024-02-14T13:51:51;11.30;99.90
14908;DHT22;7545;52.092;7.006;2024-02-14T13:54:18;11.30;99.90
14908;DHT22;7545;52.092;7.006;2024-02-14T13:56:44;11.30;99.90
14908;DHT22;7545;52.092;7.006;2024-02-14T13:59:10;11.30;99.90
14908;DHT22;7545;52.092;7.006;2024-02-14T14:01:36;11.30;99.90
14908;DHT22;7545;52.092;7.006;2024-02-14T14:04:02;11.30;99.90
14908;DHT22;7545;52.092;7.006;2024-02-14T14:06:29;11.30;99.90
14908;DHT22;7545;52.092;7.006;2024-02-14T14:08:55;11.30;99.90
14908;DHT22;7545;52.092;7.006;2024-02-14T14:11:20;11.30;99.90
14908;DHT22;7545;52.092;7.006;2024-02-14T14:13:46;11.30;99.90
14908;DHT22;7545;52.092;7.006;2024-02-14T14:16:12;11.30;99.90
14908;DHT22;7545;52.092;7.006;2024-02-14T14:18:38;11.30;99.90
14908;DHT22;7545;52.092;7.006;2024-02-14T14:21:04;11.30;99.90
14908;DHT22;7545;52.092;7.006;2024-02-14T14:23:30;11.30;99.90
14908;DHT22;7545;52.092;7.006;2024-02-14T14:25:56;11.30;99.90
14908;DHT22;7545;52.092;7.006;2024-02-14T14:28:22;11.30;99.90
14908;DHT22;7545;52.092;7.006;2024-02-14T14:30:53;11.30;99.90
14908;DHT22;7545;52.092;7.006;2024-02-14T14:33:20;11.30;99.90
14908;DHT22;7545;52.092;7.006;2024-02-14T14:35:46;11.30;99.90
14908;DHT22;7545;52.092;7.006;2024-02-14T14:38:14;11.30;99.90
14908;DHT22;7545;52.092;7.006;2024-02-14T14:40:40;11.30;99.90
14908;DHT22;7545;52.092;7.006;2024-02-14T14:43:05;11.30;99.90
14908;DHT22;7545;52.092;7.006;2024-02-14T14:45:32;11.30;99.90
14908;DHT22;7545;52.092;7.006;2024-02-14T14:47:58;11.30;99.90
14908;DHT22;7545;52.092;7.006;2024-02-14T14:50:24;11.30;99.90
14908;DHT22;7545;52.092;7.006;2024-02-14T14:52:51;11.30;99.90
14908;DHT22;7545;52.092;7.006;2024-02-14T14:55:17;11.30;99.90
14908;DHT22;7545;52.092;7.006;2024-02-14T14:57:43;11.30;99.90
14908;DHT22;7545;52.092;7.006;2024-02-14T15:00:09;11.30;99.90
14908;DHT22;7545;52.092;7.006;2024-02-14T15:02:42;11.30;99.90
14908;DHT22;7545;52.092;7.006;2024-02-14T15:05:09;11.30;99.90
14908;DHT22;7545;52.092;7.006;2024-02-14T15:07:36;11.30;99.90
14908;DHT22;7545;52.092;7.006;2024-02-14T15:10:01;11.30;99.90
14908;DHT22;7545;52.092;7.006;2024-02-14T15:12:27;11.30;99.90
14908;DHT22;7545;52.092;7.006;2024-02-14T15:14:52;11.30;99.90
14908;DHT22;7545;52.092;7.006;2024-02-14T15:17:21;11.30;99.90
14908;DHT22;7545;52.092;7.006;2024-02-14T15:19:48;11.30;99.90
14908;DHT22;7545;52.092;7.006;2024-02-14T15:22:14;11.30;99.90
14908;DHT22;7545;52.092;7.006;2024-02-14T15:24:39;11.30;99.90
14908;DHT22;7545;52.092;7.006;2024-02-14T15:27:11;11.30;99.90
14908;DHT22;7545;52.092;7.006;2024-02-14T15:29:37;11.30;99.90
14908;DHT22;7545;52.092;7.006;2024-02-14T15:32:21;11.30;99.90
14908;DHT22;7545;52.092;7.006;2024-02-14T15:35:06;11.30;99.90
14908;DHT22;7545;52.092;7.006;2024-02-14T15:37:34;11.30;99.90
14908;DHT22;7545;52.092;7.006;2024-02-14T15:39:59;11.20;99.90
14908;DHT22;7545;52.092;7.006;2024-02-14T15:42:25;11.20;99.90
14908;DHT22;7545;52.092;7.006;2024-02-14T15:44:51;11.20;99.90
14908;DHT22;7545;52.092;7.006;2024-02-14T15:47:17;11.30;99.90
14908;DHT22;7545;52.092;7.006;2024-02-14T15:49:42;11.30;99.90
14908;DHT22;7545;52.092;7.006;2024-02-14T15:52:08;11.20;99.90
14908;DHT22;7545;52.092;7.006;2024-02-14T15:54:34;11.30;99.90
14908;DHT22;7545;52.092;7.006;2024-02-14T15:56:59;11.20;99.90